createdAt,value
2018-02-16T00:00:40.042Z,16.92
2018-02-16T00:03:06.329Z,16.55
2018-02-16T00:05:32.567Z,16.27
2018-02-16T00:07:58.792Z,16.87
2018-02-16T00:10:25.073Z,15.98
2018-02-16T00:12:51.521Z,15.98
2018-02-16T00:15:17.907Z,15.70
2018-02-16T00:17:44.408Z,15.60
2018-02-16T00:20:10.838Z,14.73
2018-02-16T00:22:37.054Z,15.45
2018-02-16T00:25:03.441Z,14.48
2018-02-16T00:27:29.736Z,14.13
2018-02-16T00:29:56.020Z,14.75
2018-02-16T00:32:22.360Z,14.80
2018-02-16T00:34:48.638Z,13.73
2018-02-16T00:37:15.078Z,14.68
2018-02-16T00:39:41.306Z,14.82
2018-02-16T00:42:07.628Z,14.40
2018-02-16T00:44:33.912Z,15.07
2018-02-16T00:47:00.266Z,15.27
2018-02-16T00:49:26.536Z,14.00
2018-02-16T00:51:52.806Z,14.30
2018-02-16T00:54:19.082Z,14.80
2018-02-16T00:56:45.339Z,13.60
2018-02-16T00:59:11.842Z,15.60
2018-02-16T01:01:38.162Z,13.70
2018-02-16T01:04:04.646Z,14.05
2018-02-16T01:06:30.867Z,14.32
2018-02-16T01:08:57.167Z,14.68
2018-02-16T01:11:23.419Z,14.32
2018-02-16T01:13:50.064Z,14.43
2018-02-16T01:16:16.403Z,13.43
2018-02-16T01:18:42.634Z,15.13
2018-02-16T01:21:08.815Z,14.10
2018-02-16T01:23:35.157Z,14.63
2018-02-16T01:26:01.450Z,13.52
2018-02-16T01:28:27.772Z,14.20
2018-02-16T01:30:54.009Z,14.13
2018-02-16T01:33:20.364Z,14.18
2018-02-16T01:35:46.629Z,14.00
2018-02-16T01:38:12.910Z,14.77
2018-02-16T01:40:39.210Z,14.15
2018-02-16T01:43:05.488Z,14.90
2018-02-16T01:45:31.762Z,14.48
2018-02-16T01:47:58.068Z,14.65
2018-02-16T01:50:24.398Z,14.65
2018-02-16T01:52:50.754Z,14.20
2018-02-16T01:55:16.939Z,14.80
2018-02-16T01:57:43.278Z,15.25
2018-02-16T02:00:09.497Z,14.93
2018-02-16T02:02:35.856Z,14.63
2018-02-16T02:05:02.146Z,15.60
2018-02-16T02:07:28.495Z,15.00
2018-02-16T02:09:54.747Z,15.10
2018-02-16T02:12:21.041Z,15.70
2018-02-16T02:14:47.406Z,15.73
2018-02-16T02:17:13.716Z,15.55
2018-02-16T02:19:39.912Z,16.05
2018-02-16T02:22:06.238Z,15.48
2018-02-16T02:24:32.640Z,15.20
2018-02-16T02:26:58.898Z,15.43
2018-02-16T02:29:25.338Z,15.35
2018-02-16T02:31:51.674Z,16.75
2018-02-16T02:34:18.049Z,16.45
2018-02-16T02:36:44.434Z,15.65
2018-02-16T02:39:10.874Z,16.02
2018-02-16T02:41:37.180Z,16.20
2018-02-16T02:44:03.587Z,16.73
2018-02-16T02:46:29.800Z,16.20
2018-02-16T02:48:56.302Z,17.55
2018-02-16T02:51:22.625Z,17.25
2018-02-16T02:53:48.862Z,16.08
2018-02-16T02:56:15.137Z,17.35
2018-02-16T02:58:41.654Z,16.23
2018-02-16T03:01:08.622Z,16.05
2018-02-16T03:03:34.962Z,17.48
2018-02-16T03:06:01.309Z,15.60
2018-02-16T03:08:27.721Z,17.17
2018-02-16T03:10:54.041Z,15.77
2018-02-16T03:13:20.267Z,16.00
2018-02-16T03:15:46.607Z,18.10
2018-02-16T03:18:13.015Z,17.25
2018-02-16T03:20:39.281Z,17.52
2018-02-16T03:23:05.660Z,16.60
2018-02-16T03:25:32.055Z,17.37
2018-02-16T03:27:58.397Z,16.77
2018-02-16T03:30:24.775Z,16.48
2018-02-16T03:32:51.050Z,18.15
2018-02-16T03:35:17.348Z,17.73
2018-02-16T03:37:43.638Z,16.95
2018-02-16T03:40:09.961Z,18.20
2018-02-16T03:42:36.244Z,17.83
2018-02-16T03:45:02.555Z,17.08
2018-02-16T03:47:28.813Z,17.52
2018-02-16T03:49:55.092Z,17.25
2018-02-16T03:52:21.397Z,17.45
2018-02-16T03:54:47.770Z,17.33
2018-02-16T03:57:14.161Z,18.20
2018-02-16T03:59:40.432Z,19.20
2018-02-16T04:02:06.727Z,17.92
2018-02-16T04:04:33.070Z,18.20
2018-02-16T04:06:59.393Z,17.67
2018-02-16T04:09:25.629Z,18.27
2018-02-16T04:11:51.988Z,18.95
2018-02-16T04:14:18.248Z,17.77
2018-02-16T04:16:44.577Z,19.02
2018-02-16T04:19:10.967Z,18.30
2018-02-16T04:21:37.283Z,19.62
2018-02-16T04:24:03.628Z,18.33
2018-02-16T04:26:29.803Z,19.83
2018-02-16T04:28:56.263Z,18.65
2018-02-16T04:31:22.444Z,18.77
2018-02-16T04:33:48.744Z,18.75
2018-02-16T04:36:15.005Z,18.35
2018-02-16T04:38:41.421Z,18.60
2018-02-16T04:41:07.753Z,18.98
2018-02-16T04:43:34.206Z,20.17
2018-02-16T04:46:00.419Z,19.42
2018-02-16T04:48:26.683Z,19.83
2018-02-16T04:50:52.921Z,20.67
2018-02-16T04:53:19.221Z,19.98
2018-02-16T04:55:45.548Z,20.62
2018-02-16T04:58:12.034Z,20.27
2018-02-16T05:00:38.275Z,20.12
2018-02-16T05:03:04.644Z,19.83
2018-02-16T05:05:30.874Z,20.20
2018-02-16T05:07:57.300Z,20.10
2018-02-16T05:10:23.578Z,21.30
2018-02-16T05:12:49.857Z,20.42
2018-02-16T05:15:16.129Z,22.02
2018-02-16T05:17:42.582Z,21.17
2018-02-16T05:20:08.933Z,21.70
2018-02-16T05:22:35.288Z,19.95
2018-02-16T05:25:01.606Z,21.50
2018-02-16T05:27:27.877Z,21.52
2018-02-16T05:29:54.123Z,21.75
2018-02-16T05:32:20.400Z,21.30
2018-02-16T05:34:46.794Z,21.73
2018-02-16T05:37:13.277Z,21.33
2018-02-16T05:39:39.531Z,22.62
2018-02-16T05:42:05.891Z,21.50
2018-02-16T05:44:32.230Z,22.95
2018-02-16T05:46:58.662Z,22.67
2018-02-16T05:49:24.974Z,22.50
2018-02-16T05:51:51.328Z,20.95
2018-02-16T05:54:17.757Z,23.77
2018-02-16T05:56:44.063Z,21.58
2018-02-16T05:59:10.544Z,22.33
2018-02-16T06:01:36.838Z,23.62
2018-02-16T06:04:03.301Z,23.33
2018-02-16T06:06:29.575Z,23.00
2018-02-16T06:08:55.982Z,24.17
2018-02-16T06:11:22.318Z,23.08
2018-02-16T06:13:48.878Z,24.73
2018-02-16T06:16:15.221Z,25.25
2018-02-16T06:18:41.680Z,22.48
2018-02-16T06:21:07.976Z,24.10
2018-02-16T06:23:34.459Z,24.80
2018-02-16T06:26:00.820Z,24.73
2018-02-16T06:28:27.208Z,24.90
2018-02-16T06:30:53.438Z,23.75
2018-02-16T06:33:19.770Z,24.25
2018-02-16T06:35:45.930Z,25.48
2018-02-16T06:38:12.183Z,26.27
2018-02-16T06:40:38.462Z,24.85
2018-02-16T06:43:04.739Z,25.00
2018-02-16T06:45:31.026Z,24.75
2018-02-16T06:47:57.291Z,24.75
2018-02-16T06:50:23.453Z,25.15
2018-02-16T06:52:49.802Z,26.15
2018-02-16T06:55:15.978Z,25.70
2018-02-16T06:57:43.247Z,24.95
2018-02-16T07:00:09.532Z,24.40
2018-02-16T07:02:35.785Z,26.05
2018-02-16T07:05:02.537Z,24.65
2018-02-16T07:07:28.859Z,25.45
2018-02-16T07:09:55.299Z,25.33
2018-02-16T07:12:21.817Z,25.52
2018-02-16T07:14:48.203Z,25.85
2018-02-16T07:17:14.515Z,25.00
2018-02-16T07:19:40.817Z,25.12
2018-02-16T07:22:07.121Z,24.85
2018-02-16T07:24:33.430Z,26.20
2018-02-16T07:26:59.798Z,25.12
2018-02-16T07:29:26.324Z,25.50
2018-02-16T07:31:52.649Z,25.33
2018-02-16T07:34:18.894Z,24.87
2018-02-16T07:36:45.102Z,24.20
2018-02-16T07:39:11.602Z,26.17
2018-02-16T07:41:37.932Z,27.25
2018-02-16T07:44:04.336Z,26.27
2018-02-16T07:46:30.579Z,25.90
2018-02-16T07:48:56.924Z,27.37
2018-02-16T07:51:23.145Z,26.30
2018-02-16T07:53:49.479Z,28.25
2018-02-16T07:56:15.738Z,29.80
2018-02-16T07:58:42.088Z,28.05
2018-02-16T08:01:08.418Z,25.85
2018-02-16T08:03:34.751Z,27.33
2018-02-16T08:06:00.971Z,26.00
2018-02-16T08:08:27.189Z,27.20
2018-02-16T08:10:53.394Z,26.30
2018-02-16T08:13:19.606Z,26.50
2018-02-16T08:15:45.874Z,28.83
2018-02-16T08:18:12.199Z,29.87
2018-02-16T08:20:38.459Z,30.35
2018-02-16T08:23:04.682Z,31.65
2018-02-16T08:25:31.897Z,24.80
2018-02-16T08:27:58.111Z,25.45
2018-02-16T08:30:24.388Z,25.67
2018-02-16T08:32:50.548Z,24.55
2018-02-16T08:35:16.820Z,24.98
2018-02-16T08:37:43.049Z,31.12
2018-02-16T08:40:09.269Z,26.98
2018-02-16T08:42:35.593Z,29.45
2018-02-16T08:45:01.917Z,32.65
2018-02-16T08:47:28.297Z,26.27
2018-02-16T08:49:54.512Z,26.98
2018-02-16T08:52:20.822Z,29.12
2018-02-16T08:54:47.087Z,25.40
2018-02-16T08:57:13.405Z,27.13
2018-02-16T08:59:39.587Z,24.63
2018-02-16T09:02:05.762Z,23.40
2018-02-16T09:04:32.032Z,26.83
2018-02-16T09:06:58.355Z,25.88
2018-02-16T09:09:24.606Z,26.23
2018-02-16T09:11:50.796Z,24.98
2018-02-16T09:14:17.142Z,27.87
2018-02-16T09:16:43.441Z,25.62
2018-02-16T09:19:13.857Z,25.77
2018-02-16T09:21:40.195Z,25.58
2018-02-16T09:24:06.715Z,29.12
2018-02-16T09:26:33.041Z,36.60
2018-02-16T09:28:59.357Z,31.45
2018-02-16T09:31:25.712Z,31.95
2018-02-16T09:33:52.080Z,34.50
2018-02-16T09:36:20.617Z,31.17
2018-02-16T09:38:47.204Z,35.22
2018-02-16T09:41:13.569Z,34.28
2018-02-16T09:43:39.916Z,34.38
2018-02-16T09:46:06.202Z,31.90
2018-02-16T09:48:32.655Z,26.80
2018-02-16T09:50:58.851Z,28.33
2018-02-16T09:53:25.128Z,25.73
2018-02-16T09:55:51.420Z,24.05
2018-02-16T09:58:17.742Z,26.60
2018-02-16T10:00:44.075Z,24.93
2018-02-16T10:03:10.469Z,25.33
2018-02-16T10:05:36.726Z,25.53
2018-02-16T10:08:02.963Z,25.47
2018-02-16T10:10:29.269Z,25.90
2018-02-16T10:12:55.592Z,24.40
2018-02-16T10:15:21.941Z,26.17
2018-02-16T10:17:48.162Z,27.63
2018-02-16T10:20:17.809Z,26.20
2018-02-16T10:22:44.147Z,25.90
2018-02-16T10:25:10.448Z,24.50
2018-02-16T10:27:36.808Z,26.20
2018-02-16T10:30:03.163Z,24.33
2018-02-16T10:32:29.492Z,24.93
2018-02-16T10:34:55.805Z,25.40
2018-02-16T10:37:22.056Z,24.10
2018-02-16T10:39:48.244Z,24.57
2018-02-16T10:42:14.567Z,25.00
2018-02-16T10:44:40.970Z,25.50
2018-02-16T10:47:07.223Z,25.43
2018-02-16T10:49:33.499Z,24.70
2018-02-16T10:51:59.745Z,24.40
2018-02-16T10:54:26.078Z,25.30
2018-02-16T10:56:52.391Z,26.27
2018-02-16T10:59:18.715Z,26.00
2018-02-16T11:01:45.115Z,25.57
2018-02-16T11:04:17.457Z,25.70
2018-02-16T11:06:48.819Z,25.90
2018-02-16T11:09:20.232Z,25.00
2018-02-16T11:11:46.622Z,25.20
2018-02-16T11:14:13.124Z,24.93
2018-02-16T11:16:39.397Z,25.67
2018-02-16T11:19:05.827Z,25.73
2018-02-16T11:21:32.241Z,25.13
2018-02-16T11:23:58.637Z,25.27
2018-02-16T11:26:25.001Z,24.07
2018-02-16T11:28:51.301Z,24.73
2018-02-16T11:31:17.607Z,24.47
2018-02-16T11:33:44.135Z,27.23
2018-02-16T11:36:10.390Z,25.60
2018-02-16T11:38:37.091Z,25.40
2018-02-16T11:41:03.521Z,27.60
2018-02-16T11:43:29.902Z,26.83
2018-02-16T11:45:56.233Z,26.37
2018-02-16T11:48:22.641Z,26.60
2018-02-16T11:50:48.866Z,27.13
2018-02-16T11:53:15.189Z,27.03
2018-02-16T11:55:41.665Z,31.93
2018-02-16T11:58:08.013Z,33.40
2018-02-16T12:00:34.294Z,30.33
2018-02-16T12:03:00.684Z,30.57
2018-02-16T12:05:27.787Z,29.57
2018-02-16T12:07:54.180Z,26.83
2018-02-16T12:10:20.485Z,26.23
2018-02-16T12:12:46.871Z,27.80
2018-02-16T12:15:13.250Z,27.83
2018-02-16T12:17:39.616Z,27.57
2018-02-16T12:20:06.001Z,38.40
2018-02-16T12:22:32.739Z,28.97
2018-02-16T12:24:58.969Z,27.20
2018-02-16T12:27:25.878Z,26.00
2018-02-16T12:29:52.186Z,28.27
2018-02-16T12:32:18.460Z,25.83
2018-02-16T12:34:44.743Z,27.40
2018-02-16T12:37:11.026Z,27.13
2018-02-16T12:39:38.190Z,28.60
2018-02-16T12:42:04.513Z,27.53
2018-02-16T12:44:30.808Z,27.43
2018-02-16T12:46:57.108Z,27.83
2018-02-16T12:49:23.301Z,27.50
2018-02-16T12:51:50.336Z,25.87
2018-02-16T12:54:16.659Z,26.10
2018-02-16T12:56:42.970Z,27.27
2018-02-16T12:59:09.220Z,25.43
2018-02-16T13:01:35.501Z,26.13
2018-02-16T13:04:01.912Z,24.77
2018-02-16T13:06:28.249Z,24.23
2018-02-16T13:08:54.566Z,25.17
2018-02-16T13:11:21.113Z,24.63
2018-02-16T13:13:47.650Z,25.77
2018-02-16T13:16:13.938Z,23.90
2018-02-16T13:18:40.322Z,26.60
2018-02-16T13:21:06.736Z,25.80
2018-02-16T13:23:33.044Z,25.17
2018-02-16T13:25:59.598Z,26.67
2018-02-16T13:28:25.784Z,26.03
2018-02-16T13:30:52.066Z,26.23
2018-02-16T13:33:18.247Z,26.53
2018-02-16T13:35:44.552Z,25.07
2018-02-16T13:38:11.133Z,27.43
2018-02-16T13:40:37.334Z,27.50
2018-02-16T13:43:03.713Z,25.50
2018-02-16T13:45:29.968Z,26.50
2018-02-16T13:47:56.238Z,27.17
2018-02-16T13:50:22.485Z,25.93
2018-02-16T13:52:48.691Z,27.60
2018-02-16T13:55:14.929Z,27.40
2018-02-16T13:57:41.236Z,26.30
2018-02-16T14:00:07.489Z,27.67
2018-02-16T14:02:33.758Z,25.60
2018-02-16T14:05:00.001Z,26.03
2018-02-16T14:07:26.248Z,26.20
2018-02-16T14:09:52.537Z,25.50
2018-02-16T14:12:18.862Z,24.80
2018-02-16T14:14:45.084Z,24.53
2018-02-16T14:17:11.396Z,24.90
2018-02-16T14:19:37.582Z,26.30
2018-02-16T14:22:04.155Z,26.13
2018-02-16T14:24:30.482Z,25.20
2018-02-16T14:26:56.830Z,27.17
2018-02-16T14:29:23.028Z,25.83
2018-02-16T14:31:49.216Z,24.93
2018-02-16T14:34:15.466Z,25.30
2018-02-16T14:36:41.840Z,25.17
2018-02-16T14:39:08.122Z,25.33
2018-02-16T14:41:34.345Z,25.20
2018-02-16T14:44:00.662Z,27.40
2018-02-16T14:46:26.962Z,26.50
2018-02-16T14:48:53.317Z,27.10
2018-02-16T14:51:19.603Z,28.13
2018-02-16T14:53:46.336Z,26.30
2018-02-16T14:56:12.667Z,26.47
2018-02-16T14:58:38.937Z,27.47
2018-02-16T15:01:05.166Z,27.50
2018-02-16T15:03:31.629Z,27.37
2018-02-16T15:05:57.870Z,29.17
2018-02-16T15:08:24.148Z,27.97
2018-02-16T15:10:50.390Z,28.07
2018-02-16T15:13:16.612Z,26.70
2018-02-16T15:15:43.039Z,30.33
2018-02-16T15:18:09.350Z,29.47
2018-02-16T15:20:35.597Z,28.50
2018-02-16T15:23:01.915Z,28.13
2018-02-16T15:25:28.339Z,28.47
2018-02-16T15:27:54.673Z,30.10
2018-02-16T15:30:20.975Z,29.87
2018-02-16T15:32:47.294Z,28.47
2018-02-16T15:35:13.840Z,28.57
2018-02-16T15:37:40.257Z,27.77
2018-02-16T15:40:06.689Z,28.27
2018-02-16T15:42:37.692Z,29.23
2018-02-16T15:45:04.180Z,28.20
2018-02-16T15:47:30.440Z,27.20
2018-02-16T15:49:56.729Z,27.03
2018-02-16T15:52:23.081Z,27.40
2018-02-16T15:54:49.360Z,27.77
2018-02-16T15:57:15.808Z,27.20
2018-02-16T15:59:42.147Z,27.77
2018-02-16T16:02:08.397Z,27.23
2018-02-16T16:04:34.667Z,27.57
2018-02-16T16:07:01.004Z,26.53
2018-02-16T16:09:27.309Z,27.40
2018-02-16T16:11:53.590Z,25.43
2018-02-16T16:14:19.922Z,25.85
2018-02-16T16:16:46.151Z,26.15
2018-02-16T16:19:12.680Z,25.13
2018-02-16T16:21:39.041Z,24.73
2018-02-16T16:24:05.497Z,27.77
2018-02-16T16:26:31.753Z,27.48
2018-02-16T16:28:58.270Z,27.27
2018-02-16T16:31:24.517Z,27.65
2018-02-16T16:33:51.013Z,29.60
2018-02-16T16:36:17.502Z,27.90
2018-02-16T16:38:43.996Z,27.20
2018-02-16T16:41:10.451Z,27.80
2018-02-16T16:43:37.253Z,27.85
2018-02-16T16:46:03.631Z,29.92
2018-02-16T16:48:29.817Z,29.48
2018-02-16T16:50:56.391Z,27.52
2018-02-16T16:53:22.638Z,29.42
2018-02-16T16:55:48.933Z,29.15
2018-02-16T16:58:16.079Z,28.87
2018-02-16T17:00:42.496Z,30.10
2018-02-16T17:03:08.704Z,28.30
2018-02-16T17:05:35.131Z,27.95
2018-02-16T17:08:01.447Z,29.00
2018-02-16T17:10:27.697Z,26.70
2018-02-16T17:12:54.387Z,24.42
2018-02-16T17:15:20.720Z,23.57
2018-02-16T17:17:46.958Z,24.80
2018-02-16T17:20:13.439Z,22.52
2018-02-16T17:22:39.744Z,23.87
2018-02-16T17:25:05.927Z,22.77
2018-02-16T17:27:32.222Z,23.05
2018-02-16T17:29:58.489Z,19.58
2018-02-16T17:32:25.304Z,20.73
2018-02-16T17:34:51.629Z,21.27
2018-02-16T17:37:18.036Z,21.62
2018-02-16T17:39:44.496Z,20.17
2018-02-16T17:42:10.829Z,22.17
2018-02-16T17:44:37.158Z,21.67
2018-02-16T17:47:03.473Z,24.05
2018-02-16T17:49:29.845Z,24.50
2018-02-16T17:51:56.178Z,21.45
2018-02-16T17:54:22.748Z,20.83
2018-02-16T17:56:49.182Z,38.38
2018-02-16T17:59:15.611Z,48.80
2018-02-16T18:01:41.877Z,51.60
2018-02-16T18:04:08.189Z,46.72
2018-02-16T18:06:34.636Z,47.08
2018-02-16T18:09:00.942Z,53.60
2018-02-16T18:11:27.306Z,52.13
2018-02-16T18:13:53.779Z,56.58
2018-02-16T18:16:20.062Z,51.22
2018-02-16T18:18:46.548Z,41.92
2018-02-16T18:21:12.907Z,39.15
2018-02-16T18:23:39.127Z,37.17
2018-02-16T18:26:05.572Z,40.80
2018-02-16T18:28:31.907Z,37.78
2018-02-16T18:30:58.112Z,39.17
2018-02-16T18:33:24.467Z,39.47
2018-02-16T18:35:50.734Z,37.45
2018-02-16T18:38:17.115Z,38.13
2018-02-16T18:40:43.365Z,41.55
2018-02-16T18:43:09.692Z,36.10
2018-02-16T18:45:36.030Z,35.42
2018-02-16T18:48:02.352Z,37.40
2018-02-16T18:50:28.625Z,39.83
2018-02-16T18:52:54.828Z,41.85
2018-02-16T18:55:21.014Z,36.17
2018-02-16T18:57:47.386Z,34.67
2018-02-16T19:00:13.793Z,36.97
2018-02-16T19:02:40.067Z,39.63
2018-02-16T19:05:06.339Z,37.45
2018-02-16T19:07:32.608Z,38.65
2018-02-16T19:09:58.885Z,38.33
2018-02-16T19:12:25.231Z,38.55
2018-02-16T19:14:51.530Z,40.75
2018-02-16T19:17:17.854Z,37.00
2018-02-16T19:19:44.363Z,37.45
2018-02-16T19:22:10.750Z,39.88
2018-02-16T19:24:37.202Z,40.05
2018-02-16T19:27:03.515Z,39.30
2018-02-16T19:29:29.716Z,40.70
2018-02-16T19:31:55.990Z,41.17
2018-02-16T19:34:22.401Z,50.12
2018-02-16T19:36:48.872Z,46.42
2018-02-16T19:39:15.102Z,44.17
2018-02-16T19:41:41.448Z,42.08
2018-02-16T19:44:07.728Z,38.88
2018-02-16T19:46:34.046Z,39.20
2018-02-16T19:49:00.312Z,42.15
2018-02-16T19:51:26.772Z,41.53
2018-02-16T19:53:53.051Z,42.30
2018-02-16T19:56:19.437Z,39.78
2018-02-16T19:58:46.152Z,44.53
2018-02-16T20:01:12.553Z,49.72
2018-02-16T20:03:38.774Z,43.03
2018-02-16T20:06:05.168Z,38.00
2018-02-16T20:08:31.513Z,41.10
2018-02-16T20:10:57.810Z,46.92
2018-02-16T20:13:24.101Z,42.50
2018-02-16T20:15:50.312Z,40.35
2018-02-16T20:18:16.656Z,37.83
2018-02-16T20:20:42.932Z,41.75
2018-02-16T20:23:09.248Z,41.10
2018-02-16T20:25:35.528Z,38.03
2018-02-16T20:28:02.131Z,33.28
2018-02-16T20:30:28.382Z,35.28
2018-02-16T20:32:55.088Z,36.28
2018-02-16T20:35:21.692Z,34.83
2018-02-16T20:37:48.020Z,35.88
2018-02-16T20:40:14.338Z,35.70
2018-02-16T20:42:40.608Z,36.88
2018-02-16T20:45:07.014Z,35.88
2018-02-16T20:47:33.396Z,36.70
2018-02-16T20:49:59.937Z,36.25
2018-02-16T20:52:26.263Z,36.60
2018-02-16T20:54:52.508Z,36.75
2018-02-16T20:57:18.664Z,34.92
2018-02-16T20:59:45.018Z,35.67
2018-02-16T21:02:11.342Z,32.72
2018-02-16T21:04:37.985Z,34.45
2018-02-16T21:07:04.325Z,33.13
2018-02-16T21:09:30.672Z,33.45
2018-02-16T21:11:58.039Z,32.38
2018-02-16T21:14:24.326Z,32.53
2018-02-16T21:16:50.603Z,32.60
2018-02-16T21:19:17.058Z,31.05
2018-02-16T21:21:43.297Z,32.63
2018-02-16T21:24:09.602Z,30.88
2018-02-16T21:26:35.990Z,31.80
2018-02-16T21:29:02.223Z,35.60
2018-02-16T21:31:28.512Z,34.30
2018-02-16T21:33:54.933Z,31.80
2018-02-16T21:36:21.475Z,31.02
2018-02-16T21:38:47.928Z,29.23
2018-02-16T21:41:14.384Z,32.55
2018-02-16T21:43:40.678Z,34.38
2018-02-16T21:46:07.128Z,34.42
2018-02-16T21:48:33.930Z,36.10
2018-02-16T21:51:00.240Z,36.63
2018-02-16T21:53:26.504Z,33.83
2018-02-16T21:55:52.816Z,33.58
2018-02-16T21:58:19.070Z,32.17
2018-02-16T22:00:45.381Z,30.37
2018-02-16T22:03:11.573Z,33.20
2018-02-16T22:05:38.077Z,31.15
2018-02-16T22:08:04.545Z,32.58
2018-02-16T22:10:30.965Z,33.50
2018-02-16T22:12:57.175Z,28.70
2018-02-16T22:15:23.452Z,30.75
2018-02-16T22:17:49.895Z,29.90
2018-02-16T22:20:16.189Z,29.23
2018-02-16T22:22:42.396Z,29.27
2018-02-16T22:25:08.712Z,29.25
2018-02-16T22:27:35.000Z,30.67
2018-02-16T22:30:01.220Z,30.80
2018-02-16T22:32:27.451Z,31.87
2018-02-16T22:34:53.856Z,32.55
2018-02-16T22:37:20.194Z,32.17
2018-02-16T22:39:46.761Z,31.33
2018-02-16T22:42:13.046Z,31.48
2018-02-16T22:44:39.442Z,33.50
2018-02-16T22:47:05.788Z,32.55
2018-02-16T22:49:32.108Z,32.58
2018-02-16T22:51:58.393Z,32.92
2018-02-16T22:54:24.659Z,34.40
2018-02-16T22:56:51.003Z,34.53
2018-02-16T22:59:17.490Z,34.42
2018-02-16T23:01:43.987Z,32.70
2018-02-16T23:04:10.330Z,33.50
2018-02-16T23:06:36.725Z,34.38
2018-02-16T23:09:03.128Z,34.55
2018-02-16T23:11:29.406Z,35.35
2018-02-16T23:13:55.761Z,34.63
2018-02-16T23:16:22.239Z,36.13
2018-02-16T23:18:48.604Z,36.83
2018-02-16T23:21:14.944Z,34.67
2018-02-16T23:23:41.282Z,33.90
2018-02-16T23:26:07.678Z,33.63
2018-02-16T23:28:34.144Z,34.00
2018-02-16T23:31:00.469Z,32.47
2018-02-16T23:33:26.824Z,34.10
2018-02-16T23:35:53.151Z,35.25
2018-02-16T23:38:19.534Z,36.05
2018-02-16T23:40:45.949Z,35.95
2018-02-16T23:43:12.161Z,34.88
2018-02-16T23:45:38.479Z,33.90
2018-02-16T23:48:04.814Z,32.72
2018-02-16T23:50:31.141Z,33.90
2018-02-16T23:52:57.489Z,33.40
2018-02-16T23:55:23.775Z,34.45
2018-02-16T23:57:50.162Z,34.60
